Airfield :
LOGIN :

Register | Disclaimer

   EN    FR    IT 

 










Legend :    VFR   Marginal VFR   IFR   Intensive IFR   Very Intensive IFR
Visi :
Ceiling :
>= 8 km
>= 3000ft
5 to 8 km
1000 to 3000 ft
1500m to 5 km
500 to 1000 ft
800 to 1500m
200 to 500 ft
< 800m
< 200 ft
Symbols :   Thunderstorms  Fog  Heavy snow  Heavy precipitations  Wind > 20 kt
SIGMETs :     Misc.  Thunderstorms  Icing  Turbulence  Mountain Waves  Volcanic Ashes







- Airport Elevation : 40 ft
- IATA code : RMI


LIPR - Federico Fellini Int. Rimini

CURRENT METAR :
  • 301415Z 06005KT CAVOK 18/14 Q1024

EXPIRED METARs :
  • 301345Z 07005KT CAVOK 18/13 Q1025
  • 301315Z 07005KT CAVOK 18/12 Q1025
  • 301245Z 04004KT CAVOK 19/13 Q1025
  • 301215Z 02004KT CAVOK 20/14 Q1025
  • 301145Z 03005KT CAVOK 20/14 Q1026
  • 301115Z 01007KT CAVOK 19/12 Q1026

TAF TAF LIPR
Valid from the 30 at 12:00 until the 30 at 21:00 UTC


301100Z 3012/3021 04010KT CAVOK
No reported NOTAMs for that airfield.



MET'MAP, your aeronautical weather chart ! - Copyright ORBIFLY December 2007 - Disclaimer

ORBIFLY MET'MAP TEAM :

Programming & Development : Alexandra Zaïnal
Concept & Development : Baudouin d'Aumeries
Co-Development & Prog : Marc-Olivier Méhu
Technical & hardware support : Manuel Goepfert

Contact : metmap@orbifly.com




SOURCES & CREDITS :

   NOAA